Time;durP1;ratioP1;P1;durP2;ratioP2;P2;SDS_P1;SDS_P2;PMS_P1;PMS_P2;Temp;Humidity;BMP_temperature;BMP_pressure;BME280_temperature;BME280_humidity;BME280_pressure;Samples;Min_cycle;Max_cycle;Signal;HPM_P1;HPM_P2
2022/05/07 00:02:09;;;;;;;24.42;22.10;;;11.60;99.90;;;;;;5036513;28;20068;-61
2022/05/07 00:04:36;;;;;;;24.58;22.02;;;11.60;99.90;;;;;;5038387;28;20123;-61
2022/05/07 00:07:04;;;;;;;25.33;22.65;;;11.60;99.90;;;;;;5041089;28;20052;-61
2022/05/07 00:09:31;;;;;;;25.25;22.67;;;11.50;99.90;;;;;;5020547;28;20508;-61
2022/05/07 00:11:58;;;;;;;24.90;22.50;;;11.50;99.90;;;;;;5039701;28;20153;-58
2022/05/07 00:14:24;;;;;;;27.02;24.27;;;11.50;99.90;;;;;;5040679;28;20060;-58
2022/05/07 00:19:35;;;;;;;25.27;22.60;;;11.50;99.90;;;;;;5018046;28;20044;-57
2022/05/07 00:22:01;;;;;;;25.02;22.45;;;11.60;99.90;;;;;;5040104;28;20398;-58
2022/05/07 00:24:27;;;;;;;24.92;22.35;;;11.60;99.90;;;;;;5042483;28;20053;-57
2022/05/07 00:26:54;;;;;;;26.25;23.52;;;11.70;99.90;;;;;;5039489;28;20044;-57
2022/05/07 00:29:20;;;;;;;28.80;24.40;;;11.80;99.90;;;;;;5021138;28;20067;-57
2022/05/07 00:31:46;;;;;;;25.88;22.90;;;11.80;99.90;;;;;;5006588;28;20061;-58
2022/05/07 00:34:12;;;;;;;27.40;24.55;;;11.90;99.90;;;;;;5036787;28;20149;-58
2022/05/07 00:36:39;;;;;;;23.95;21.80;;;12.00;99.90;;;;;;5039005;28;20037;-57
2022/05/07 00:39:05;;;;;;;25.65;23.05;;;12.00;99.90;;;;;;5035555;28;20060;-57
2022/05/07 00:41:31;;;;;;;24.88;22.25;;;12.10;99.90;;;;;;5040522;28;20098;-57
2022/05/07 00:43:57;;;;;;;26.67;23.10;;;12.10;99.90;;;;;;5039391;28;20797;-58
2022/05/07 00:46:25;;;;;;;26.42;23.85;;;12.10;99.90;;;;;;5036018;28;20134;-57
2022/05/07 00:48:53;;;;;;;26.90;23.13;;;12.10;99.90;;;;;;5006395;28;20057;-58
2022/05/07 00:51:35;;;;;;;26.17;23.65;;;12.20;99.90;;;;;;5034903;28;20060;-57
2022/05/07 00:54:07;;;;;;;27.60;24.80;;;12.10;99.90;;;;;;5023260;28;20120;-58
2022/05/07 00:56:36;;;;;;;25.73;23.42;;;12.10;99.90;;;;;;5032472;28;20098;-57
2022/05/07 00:59:03;;;;;;;25.25;22.85;;;12.10;99.90;;;;;;5036927;28;20091;-57
2022/05/07 01:01:30;;;;;;;25.08;22.73;;;12.00;99.90;;;;;;5015128;28;20053;-58
2022/05/07 01:03:56;;;;;;;25.10;22.90;;;12.00;99.90;;;;;;5037511;28;20103;-57
2022/05/07 01:06:25;;;;;;;26.20;21.30;;;12.00;99.90;;;;;;5036614;28;20408;-57
2022/05/07 01:08:51;;;;;;;23.90;21.65;;;12.00;99.90;;;;;;5039216;28;20092;-57
2022/05/07 01:11:19;;;;;;;28.05;25.05;;;12.10;99.90;;;;;;5032359;28;20096;-57
2022/05/07 01:13:46;;;;;;;27.15;24.67;;;12.00;99.90;;;;;;5039964;28;20880;-57
2022/05/07 01:16:14;;;;;;;29.45;26.27;;;12.10;99.90;;;;;;5020764;28;20047;-58
2022/05/07 01:18:42;;;;;;;28.42;25.42;;;12.10;99.90;;;;;;5029295;28;20041;-57
2022/05/07 01:21:12;;;;;;;27.63;24.92;;;12.10;99.90;;;;;;5026311;28;20747;-57
2022/05/07 01:23:41;;;;;;;29.48;26.48;;;12.10;99.90;;;;;;5025807;28;20053;-57
2022/05/07 01:26:08;;;;;;;26.25;23.58;;;12.10;99.90;;;;;;5038714;28;20088;-57
2022/05/07 01:28:36;;;;;;;28.00;25.15;;;12.20;99.90;;;;;;5045261;28;20824;-57
2022/05/07 01:31:05;;;;;;;29.75;26.75;;;12.20;99.90;;;;;;5008059;28;20942;-57
2022/05/07 01:33:36;;;;;;;28.33;25.65;;;12.20;99.90;;;;;;5036712;28;20045;-57
2022/05/07 01:36:16;;;;;;;27.35;24.65;;;12.20;99.90;;;;;;5040456;28;20072;-57
2022/05/07 01:38:43;;;;;;;26.08;23.67;;;12.20;99.90;;;;;;5037115;28;20746;-57
2022/05/07 01:41:09;;;;;;;27.02;24.23;;;12.20;99.90;;;;;;5016338;28;20053;-57
2022/05/07 01:43:38;;;;;;;26.30;23.52;;;12.20;99.90;;;;;;5016773;28;20520;-57
2022/05/07 01:48:09;;;;;;;23.95;21.73;;;12.20;99.90;;;;;;5040642;28;20049;-57
2022/05/07 01:48:51;;;;;;;25.15;22.63;;;12.20;99.90;;;;;;5025052;28;20203;-57
2022/05/07 01:51:18;;;;;;;26.33;23.83;;;12.20;99.90;;;;;;5025033;28;20143;-57
2022/05/07 01:53:44;;;;;;;28.33;25.48;;;12.20;99.90;;;;;;5043502;28;20057;-57
2022/05/07 01:56:10;;;;;;;28.65;25.95;;;12.30;99.90;;;;;;5033906;28;20049;-57
2022/05/07 01:58:42;;;;;;;25.67;23.02;;;12.30;99.90;;;;;;5025413;28;20543;-57
2022/05/07 02:01:10;;;;;;;28.60;25.70;;;12.30;99.90;;;;;;5003965;28;20860;-57
2022/05/07 02:03:38;;;;;;;28.67;25.83;;;12.30;99.90;;;;;;5035843;28;20139;-57
2022/05/07 02:06:04;;;;;;;29.80;26.75;;;12.40;99.90;;;;;;5003352;28;20041;-57
2022/05/07 02:08:30;;;;;;;29.13;26.23;;;12.40;99.90;;;;;;5035172;28;20118;-57
2022/05/07 02:11:01;;;;;;;27.95;25.20;;;12.40;99.90;;;;;;5034590;28;20056;-57
2022/05/07 02:13:28;;;;;;;27.20;24.60;;;12.30;99.90;;;;;;5028417;28;20782;-57
2022/05/07 02:15:55;;;;;;;28.58;25.88;;;12.40;99.90;;;;;;5036067;28;20479;-57
2022/05/07 02:18:21;;;;;;;25.77;23.30;;;12.40;99.90;;;;;;4987474;28;20077;-57
2022/05/07 02:20:47;;;;;;;28.38;25.73;;;12.40;99.90;;;;;;5035092;28;20076;-57
2022/05/07 02:23:13;;;;;;;28.42;25.63;;;12.40;99.90;;;;;;5037179;28;20102;-56
2022/05/07 02:25:39;;;;;;;29.23;26.10;;;12.40;99.90;;;;;;5033979;28;20045;-57
2022/05/07 02:28:06;;;;;;;30.33;27.30;;;12.40;99.90;;;;;;5035378;28;20132;-57
2022/05/07 02:30:32;;;;;;;29.05;26.27;;;12.40;99.90;;;;;;5018995;28;20068;-57
2022/05/07 02:33:03;;;;;;;27.00;24.10;;;12.40;99.90;;;;;;5015030;28;20579;-57
2022/05/07 02:35:32;;;;;;;28.85;24.98;;;12.40;99.90;;;;;;5034491;28;20057;-57
2022/05/07 02:37:58;;;;;;;28.10;25.50;;;12.40;99.90;;;;;;5037257;28;20072;-58
2022/05/07 02:40:25;;;;;;;29.45;26.42;;;12.40;99.90;;;;;;5036040;28;20673;-57
2022/05/07 02:42:53;;;;;;;30.30;27.35;;;12.50;99.90;;;;;;5034305;28;20077;-57
2022/05/07 02:45:19;;;;;;;28.55;25.75;;;12.40;99.90;;;;;;5034587;28;20045;-57
2022/05/07 02:47:50;;;;;;;27.52;24.70;;;12.40;99.90;;;;;;5002399;28;20079;-57
2022/05/07 02:50:18;;;;;;;30.70;27.70;;;12.40;99.90;;;;;;5037771;28;20053;-62
2022/05/07 02:52:44;;;;;;;29.17;26.38;;;12.40;99.90;;;;;;5036365;28;20610;-61
2022/05/07 02:55:11;;;;;;;29.10;26.20;;;12.40;99.90;;;;;;5021183;28;20098;-61
2022/05/07 02:57:39;;;;;;;28.90;25.95;;;12.30;99.90;;;;;;5052941;28;20151;-61
2022/05/07 03:00:05;;;;;;;26.42;23.67;;;12.40;99.90;;;;;;5035530;28;20052;-61
2022/05/07 03:02:34;;;;;;;27.95;25.00;;;12.30;99.90;;;;;;5036465;28;20064;-61
2022/05/07 03:05:01;;;;;;;26.13;23.63;;;12.30;99.90;;;;;;5019110;28;20060;-61
2022/05/07 03:07:27;;;;;;;27.38;24.67;;;12.30;99.90;;;;;;5037117;28;20052;-61
2022/05/07 03:09:56;;;;;;;27.25;24.55;;;12.30;99.90;;;;;;5001476;28;20738;-61
2022/05/07 03:12:23;;;;;;;27.83;25.13;;;12.30;99.90;;;;;;5020748;28;20053;-61
2022/05/07 03:14:49;;;;;;;26.73;24.23;;;12.20;99.90;;;;;;5029882;28;20044;-62
2022/05/07 03:17:16;;;;;;;26.42;23.85;;;12.20;99.90;;;;;;5034190;28;20072;-61
2022/05/07 03:19:42;;;;;;;26.73;24.13;;;12.20;99.90;;;;;;5018506;28;20790;-62
2022/05/07 03:22:08;;;;;;;29.70;26.85;;;12.20;99.90;;;;;;5019032;28;20473;-62
2022/05/07 03:24:38;;;;;;;25.65;23.25;;;12.20;99.90;;;;;;5034762;28;20103;-61
2022/05/07 03:27:05;;;;;;;27.92;25.23;;;12.20;99.90;;;;;;5033895;28;20041;-62
2022/05/07 03:29:34;;;;;;;29.90;26.85;;;12.20;99.90;;;;;;5018065;28;20166;-62
2022/05/07 03:32:09;;;;;;;29.60;26.60;;;12.20;99.90;;;;;;5005660;28;20118;-61
2022/05/07 03:34:35;;;;;;;27.70;25.02;;;12.20;99.90;;;;;;5001248;28;20132;-61
2022/05/07 03:37:03;;;;;;;29.08;26.17;;;12.10;99.90;;;;;;5034026;28;20138;-62
2022/05/07 03:39:31;;;;;;;31.65;28.73;;;12.10;99.90;;;;;;5039954;28;20052;-57
2022/05/07 03:41:57;;;;;;;30.17;26.98;;;12.10;99.90;;;;;;5034032;28;20049;-57
2022/05/07 03:44:23;;;;;;;31.98;28.67;;;12.10;99.90;;;;;;5036481;28;20048;-57
2022/05/07 03:46:53;;;;;;;31.40;27.42;;;12.20;99.90;;;;;;5032988;28;20053;-57
2022/05/07 03:49:21;;;;;;;30.70;27.77;;;12.20;99.90;;;;;;5033796;28;20048;-57
2022/05/07 03:54:33;;;;;;;32.20;29.02;;;12.20;99.90;;;;;;5021510;28;20064;-57
2022/05/07 03:57:00;;;;;;;34.42;31.00;;;12.20;99.90;;;;;;5037464;28;20126;-57
2022/05/07 03:59:31;;;;;;;35.85;32.25;;;12.20;99.90;;;;;;5018267;28;20135;-57
2022/05/07 04:01:57;;;;;;;33.03;29.90;;;12.30;99.90;;;;;;5017445;28;20591;-57
2022/05/07 04:04:33;;;;;;;33.80;30.50;;;12.30;99.90;;;;;;5019363;28;20158;-57
2022/05/07 04:07:04;;;;;;;33.30;30.08;;;12.30;99.90;;;;;;5034644;28;20049;-57
2022/05/07 04:09:32;;;;;;;33.60;30.40;;;12.30;99.90;;;;;;5034096;28;20055;-57
2022/05/07 04:11:58;;;;;;;34.50;31.05;;;12.30;99.90;;;;;;5018094;28;20045;-57
2022/05/07 04:14:24;;;;;;;34.38;31.00;;;12.40;99.90;;;;;;5033697;28;20053;-58
2022/05/07 04:16:54;;;;;;;34.05;30.38;;;12.40;99.90;;;;;;5009000;28;20045;-58
2022/05/07 04:19:20;;;;;;;35.72;32.00;;;12.40;99.90;;;;;;5032279;28;20373;-58
2022/05/07 04:21:51;;;;;;;35.57;31.87;;;12.40;99.90;;;;;;5035264;28;20056;-57
2022/05/07 04:24:21;;;;;;;35.17;31.50;;;12.40;99.90;;;;;;5000032;28;20303;-57
2022/05/07 04:26:51;;;;;;;36.35;32.70;;;12.40;99.90;;;;;;5035459;28;20037;-57
2022/05/07 04:29:17;;;;;;;35.05;31.35;;;12.40;99.90;;;;;;5033214;28;20057;-61
2022/05/07 04:31:46;;;;;;;36.97;33.55;;;12.40;99.90;;;;;;5017018;28;20053;-61
2022/05/07 04:34:13;;;;;;;37.08;33.30;;;12.40;99.90;;;;;;5033353;28;20107;-57
2022/05/07 04:36:40;;;;;;;34.97;31.55;;;12.40;99.90;;;;;;5051741;28;20068;-57
2022/05/07 04:39:11;;;;;;;34.75;31.42;;;12.40;99.90;;;;;;5033805;28;20049;-57
2022/05/07 04:41:52;;;;;;;34.37;31.07;;;12.40;99.90;;;;;;5033927;28;20071;-62
2022/05/07 04:44:24;;;;;;;35.00;31.50;;;12.50;99.90;;;;;;5033214;28;20118;-57
2022/05/07 04:46:51;;;;;;;35.20;31.63;;;12.50;99.90;;;;;;5032663;28;20160;-57
2022/05/07 04:49:19;;;;;;;32.97;29.85;;;12.50;99.90;;;;;;5036347;28;20838;-61
2022/05/07 04:51:50;;;;;;;34.58;31.33;;;12.50;99.90;;;;;;5037998;28;20132;-61
2022/05/07 04:54:20;;;;;;;35.40;31.88;;;12.60;99.90;;;;;;5026641;28;20171;-61
2022/05/07 04:56:48;;;;;;;34.08;30.75;;;12.60;99.90;;;;;;5029403;28;20462;-57
2022/05/07 04:59:15;;;;;;;35.17;31.65;;;12.60;99.90;;;;;;5023551;28;20060;-57
2022/05/07 05:01:50;;;;;;;33.83;30.58;;;12.70;99.90;;;;;;5001637;28;20037;-56
2022/05/07 05:04:20;;;;;;;35.35;31.85;;;12.70;99.90;;;;;;5043212;28;20563;-58
2022/05/07 05:06:48;;;;;;;35.55;32.13;;;12.80;99.90;;;;;;5039611;28;20136;-56
2022/05/07 05:09:17;;;;;;;36.30;32.75;;;12.80;99.90;;;;;;5042548;28;20111;-56
2022/05/07 05:12:04;;;;;;;37.67;33.97;;;12.80;99.90;;;;;;5040177;28;20049;-55
2022/05/07 05:17:24;;;;;;;37.70;33.92;;;12.90;99.90;;;;;;5026885;28;20717;-57
2022/05/07 05:19:51;;;;;;;34.88;31.50;;;12.90;99.90;;;;;;5019821;28;20451;-57
2022/05/07 05:22:20;;;;;;;37.33;33.53;;;12.80;99.90;;;;;;5042317;28;20053;-57
2022/05/07 05:24:47;;;;;;;38.25;34.45;;;12.90;99.90;;;;;;5038161;28;20076;-55
2022/05/07 05:27:14;;;;;;;39.72;36.00;;;12.90;99.90;;;;;;5018068;28;20120;-56
2022/05/07 05:29:46;;;;;;;37.25;33.53;;;12.90;99.90;;;;;;5041718;28;20048;-56
2022/05/07 05:32:17;;;;;;;37.85;34.33;;;12.90;99.90;;;;;;5021593;28;20040;-56
2022/05/07 05:34:52;;;;;;;40.90;36.33;;;13.00;99.90;;;;;;5042733;28;20148;-56
2022/05/07 05:37:21;;;;;;;40.17;36.40;;;13.00;99.90;;;;;;5005092;28;20577;-56
2022/05/07 05:39:47;;;;;;;39.53;35.67;;;13.10;99.90;;;;;;5038493;28;20111;-55
2022/05/07 05:42:16;;;;;;;39.35;35.50;;;13.20;99.90;;;;;;5018721;28;20056;-56
2022/05/07 05:44:43;;;;;;;37.63;33.95;;;13.10;99.90;;;;;;5037951;28;20079;-56
2022/05/07 05:47:15;;;;;;;;;;;13.20;99.90;;;;;;5025136;28;20128;-56
2022/05/07 05:49:41;;;;;;;38.30;34.70;;;13.20;99.90;;;;;;5049386;28;19966;-56
2022/05/07 05:52:08;;;;;;;38.10;34.40;;;13.30;99.90;;;;;;5021914;28;20059;-55
2022/05/07 05:54:36;;;;;;;38.17;34.40;;;13.40;99.90;;;;;;5022113;28;20139;-55
2022/05/07 05:57:03;;;;;;;36.38;32.78;;;13.40;99.90;;;;;;5018521;28;20056;-54
2022/05/07 05:59:30;;;;;;;36.33;33.03;;;13.50;99.90;;;;;;5031054;28;20111;-56
2022/05/07 06:01:56;;;;;;;37.78;34.38;;;13.60;99.90;;;;;;5011581;28;20659;-57
2022/05/07 06:04:36;;;;;;;37.55;33.97;;;13.70;99.90;;;;;;5037301;28;20075;-56
2022/05/07 06:07:09;;;;;;;36.90;33.22;;;13.80;99.90;;;;;;5042451;28;20496;-57
2022/05/07 06:09:37;;;;;;;33.30;30.20;;;14.00;99.90;;;;;;5043513;28;20136;-57
2022/05/07 06:12:09;;;;;;;36.87;33.03;;;14.00;99.90;;;;;;5043861;28;20041;-57
2022/05/07 06:14:35;;;;;;;35.67;32.35;;;14.10;99.90;;;;;;5025900;28;20291;-57
2022/05/07 06:17:04;;;;;;;34.15;30.95;;;14.10;99.90;;;;;;5036588;28;20057;-57
2022/05/07 06:19:30;;;;;;;33.22;30.17;;;14.20;99.90;;;;;;5041358;28;20127;-57
2022/05/07 06:21:57;;;;;;;35.15;31.77;;;14.40;99.90;;;;;;5042771;28;20496;-56
2022/05/07 06:27:33;;;;;;;32.03;28.83;;;14.70;99.90;;;;;;5022424;28;20103;-56
2022/05/07 06:30:05;;;;;;;31.05;28.13;;;14.80;99.90;;;;;;4989768;28;20140;-56
2022/05/07 06:32:40;;;;;;;31.08;28.08;;;15.00;99.90;;;;;;5034187;28;20344;-56
2022/05/07 06:35:10;;;;;;;29.27;26.33;;;15.30;99.90;;;;;;5033227;28;20037;-56
2022/05/07 06:37:48;;;;;;;28.77;26.17;;;15.60;99.90;;;;;;5025267;28;20421;-57
2022/05/07 06:40:15;;;;;;;27.48;24.80;;;15.60;99.90;;;;;;5036815;28;20064;-56
2022/05/07 06:42:46;;;;;;;25.95;23.30;;;15.70;99.90;;;;;;5055153;28;20044;-58
2022/05/07 06:45:20;;;;;;;28.70;25.88;;;15.80;99.90;;;;;;5032263;28;20064;-57
2022/05/07 06:47:46;;;;;;;28.38;25.48;;;15.90;99.90;;;;;;5035822;28;20132;-60
2022/05/07 06:50:13;;;;;;;27.58;25.08;;;15.90;99.90;;;;;;5034863;28;20049;-57
2022/05/07 06:52:44;;;;;;;27.17;24.65;;;15.90;99.90;;;;;;5038026;28;20107;-57
2022/05/07 06:55:19;;;;;;;26.60;24.17;;;15.90;99.90;;;;;;5018251;28;20061;-58
2022/05/07 06:57:46;;;;;;;27.08;24.27;;;15.90;99.90;;;;;;5033913;28;20041;-58
2022/05/07 07:00:14;;;;;;;25.95;23.30;;;15.90;99.90;;;;;;5020133;28;20052;-56
2022/05/07 07:02:41;;;;;;;25.38;22.77;;;15.90;99.90;;;;;;5023730;28;20131;-57
2022/05/07 07:05:08;;;;;;;25.65;22.98;;;16.00;99.90;;;;;;5034191;28;20152;-57
2022/05/07 07:07:34;;;;;;;26.77;24.33;;;16.20;99.90;;;;;;5032928;28;20119;-57
2022/05/07 07:10:00;;;;;;;24.92;22.58;;;16.30;99.90;;;;;;5036247;28;20057;-56
2022/05/07 07:12:28;;;;;;;25.05;22.55;;;16.30;99.90;;;;;;5034726;28;20055;-56
2022/05/07 07:14:54;;;;;;;24.17;21.92;;;16.50;99.90;;;;;;5021183;28;20060;-58
2022/05/07 07:17:20;;;;;;;25.02;22.42;;;16.50;99.90;;;;;;5038173;28;20041;-56
2022/05/07 07:19:46;;;;;;;23.90;21.52;;;16.60;99.90;;;;;;5033623;28;20049;-56
2022/05/07 07:22:13;;;;;;;24.58;22.17;;;16.60;99.90;;;;;;5034043;28;20484;-55
2022/05/07 07:24:39;;;;;;;23.55;21.33;;;16.70;99.90;;;;;;5019790;28;20045;-55
2022/05/07 07:27:06;;;;;;;32.42;29.17;;;16.80;99.90;;;;;;5028915;28;20091;-57
2022/05/07 07:29:33;;;;;;;26.30;23.50;;;17.00;99.90;;;;;;5033652;28;20067;-57
2022/05/07 07:31:59;;;;;;;24.15;21.73;;;17.10;99.90;;;;;;5021010;28;20370;-57
2022/05/07 07:34:33;;;;;;;26.15;23.65;;;17.20;99.90;;;;;;5105604;27;20468;-58
2022/05/07 07:36:59;;;;;;;18.65;16.75;;;17.40;99.90;;;;;;5101706;28;20402;-61
2022/05/07 07:39:26;;;;;;;18.30;15.68;;;17.70;99.90;;;;;;5095781;28;20052;-61
2022/05/07 07:41:52;;;;;;;18.10;16.35;;;17.90;99.90;;;;;;5102117;28;20538;-59
2022/05/07 07:44:18;;;;;;;18.90;16.98;;;18.10;99.90;;;;;;5097227;28;20055;-61
2022/05/07 07:49:29;;;;;;;20.65;18.42;;;18.20;99.90;;;;;;5114107;28;20055;-58
2022/05/07 07:51:56;;;;;;;24.13;21.13;;;18.00;99.90;;;;;;5096199;28;20031;-58
2022/05/07 07:54:22;;;;;;;17.83;15.90;;;18.10;99.90;;;;;;5113274;28;20047;-59
2022/05/07 07:56:48;;;;;;;16.65;14.85;;;18.40;99.90;;;;;;5097333;28;20078;-58
2022/05/07 07:59:14;;;;;;;17.17;15.38;;;18.40;99.90;;;;;;5097722;28;20146;-58
2022/05/07 08:01:40;;;;;;;15.30;12.35;;;18.50;99.90;;;;;;5096522;28;20048;-58
2022/05/07 08:04:08;;;;;;;22.15;18.25;;;18.40;99.90;;;;;;5078501;28;20046;-57
2022/05/07 08:06:34;;;;;;;17.08;13.38;;;18.40;99.90;;;;;;5100475;28;20158;-58
2022/05/07 08:11:49;;;;;;;17.70;13.55;;;19.10;99.90;;;;;;5098972;28;20043;-58
2022/05/07 08:14:15;;;;;;;16.80;15.10;;;19.50;99.90;;;;;;5098535;28;20043;-59
2022/05/07 08:16:42;;;;;;;30.35;26.70;;;19.10;99.90;;;;;;5081089;28;20418;-58
2022/05/07 08:19:12;;;;;;;16.45;14.23;;;19.30;99.90;;;;;;5098986;28;20480;-59
2022/05/07 08:21:38;;;;;;;20.95;18.75;;;19.20;99.90;;;;;;5097107;28;20852;-59
2022/05/07 08:24:04;;;;;;;18.08;16.17;;;18.90;99.90;;;;;;5098937;28;20811;-59
2022/05/07 08:26:31;;;;;;;17.90;15.57;;;19.20;99.90;;;;;;5110295;28;20084;-59
2022/05/07 08:28:57;;;;;;;18.10;15.60;;;19.50;99.90;;;;;;5099553;28;20588;-59
2022/05/07 08:31:23;;;;;;;24.25;14.77;;;19.70;99.90;;;;;;5099718;28;20070;-58
2022/05/07 08:33:51;;;;;;;20.50;15.27;;;20.00;99.90;;;;;;5103128;27;20050;-59
2022/05/07 08:36:17;;;;;;;20.10;17.00;;;20.20;99.90;;;;;;5096438;28;20079;-59
2022/05/07 08:38:43;;;;;;;19.55;17.48;;;20.10;99.90;;;;;;5094787;28;20040;-59
2022/05/07 08:41:11;;;;;;;19.90;18.00;;;19.90;99.90;;;;;;5108912;27;20069;-59
2022/05/07 08:43:42;;;;;;;23.17;20.80;;;19.60;99.90;;;;;;5096581;28;20057;-58
2022/05/07 08:46:14;;;;;;;;;;;19.50;99.90;;;;;;5083488;28;20048;-59
2022/05/07 08:48:47;;;;;;;20.25;18.00;;;19.60;99.90;;;;;;5087038;28;19973;-58
2022/05/07 08:51:15;;;;;;;23.27;19.73;;;19.40;99.90;;;;;;5093259;28;20082;-60
2022/05/07 08:53:43;;;;;;;25.13;22.73;;;19.20;99.90;;;;;;5083457;28;20052;-59
2022/05/07 08:56:11;;;;;;;24.15;21.70;;;19.20;99.90;;;;;;5099437;28;20512;-59
2022/05/07 08:58:37;;;;;;;23.00;20.70;;;19.20;99.90;;;;;;5085607;28;20060;-59
2022/05/07 09:01:05;;;;;;;34.78;31.27;;;19.30;99.90;;;;;;5082289;28;20036;-59
2022/05/07 09:03:42;;;;;;;24.98;21.92;;;19.10;99.90;;;;;;5081966;28;20047;-59
2022/05/07 09:06:25;;;;;;;24.48;21.92;;;18.80;99.90;;;;;;5081429;28;20411;-59
2022/05/07 09:08:54;;;;;;;26.52;23.55;;;18.80;99.90;;;;;;5065443;28;20040;-59
2022/05/07 09:11:21;;;;;;;24.95;22.40;;;18.90;99.90;;;;;;5082048;28;20137;-61
2022/05/07 09:13:58;;;;;;;27.85;24.98;;;18.90;99.90;;;;;;5084186;28;20093;-62
2022/05/07 09:16:24;;;;;;;28.05;25.15;;;18.70;99.90;;;;;;5066742;28;20052;-61
2022/05/07 09:18:50;;;;;;;25.70;23.23;;;18.70;99.90;;;;;;5086088;28;20048;-59
2022/05/07 09:21:16;;;;;;;27.13;24.42;;;18.60;99.90;;;;;;5083958;28;20051;-60
2022/05/07 09:24:00;;;;;;;30.10;26.98;;;18.60;99.90;;;;;;5084604;28;20048;-60
2022/05/07 09:26:39;;;;;;;26.27;23.75;;;18.70;99.90;;;;;;5080865;28;20052;-59
2022/05/07 09:29:10;;;;;;;26.98;24.08;;;18.60;99.90;;;;;;5083603;28;20161;-59
2022/05/07 09:31:41;;;;;;;26.83;23.98;;;18.60;99.90;;;;;;5081761;28;20091;-59
2022/05/07 09:37:01;;;;;;;29.17;26.30;;;18.50;99.90;;;;;;5082654;28;20294;-60
2022/05/07 09:39:32;;;;;;;28.00;25.23;;;18.80;99.90;;;;;;5081746;28;20036;-59
2022/05/07 09:41:58;;;;;;;26.27;23.73;;;19.10;99.90;;;;;;5081266;28;20036;-57
2022/05/07 09:44:28;;;;;;;32.72;29.45;;;19.10;99.90;;;;;;5081285;28;20083;-58
2022/05/07 09:46:58;;;;;;;27.40;24.70;;;19.40;99.90;;;;;;5085136;28;20058;-57
2022/05/07 09:49:28;;;;;;;31.08;27.77;;;19.40;99.90;;;;;;5100942;28;20056;-57
2022/05/07 09:51:58;;;;;;;29.27;26.27;;;19.70;99.90;;;;;;5083879;28;20051;-57
2022/05/07 09:57:31;;;;;;;28.92;25.83;;;20.00;99.90;;;;;;5080181;28;20114;-58
2022/05/07 10:00:07;;;;;;;28.02;24.90;;;20.20;99.90;;;;;;5087747;28;20085;-58
2022/05/07 10:03:06;;;;;;;29.58;26.63;;;20.00;99.90;;;;;;5068422;28;20047;-58
2022/05/07 10:06:01;;;;;;;28.73;25.77;;;20.20;99.90;;;;;;5099970;28;20067;-58
2022/05/07 10:08:41;;;;;;;28.77;25.88;;;20.30;99.90;;;;;;5080683;28;20048;-57
2022/05/07 10:11:08;;;;;;;28.73;25.85;;;20.10;99.90;;;;;;5083577;28;20729;-57
2022/05/07 10:13:34;;;;;;;29.60;26.63;;;20.10;99.90;;;;;;5065376;28;20047;-57
2022/05/07 10:16:02;;;;;;;28.55;25.67;;;20.10;99.90;;;;;;5084046;28;20050;-57
2022/05/07 10:18:41;;;;;;;30.55;27.23;;;20.00;99.90;;;;;;5083473;28;20050;-57
2022/05/07 10:21:16;;;;;;;28.88;26.05;;;20.20;99.90;;;;;;5066386;28;20384;-57
2022/05/07 10:23:56;;;;;;;28.88;25.90;;;20.30;99.90;;;;;;5099694;28;20052;-57
2022/05/07 10:26:36;;;;;;;28.02;25.30;;;20.20;99.90;;;;;;5083177;28;20075;-57
2022/05/07 10:29:03;;;;;;;29.40;26.50;;;20.00;99.90;;;;;;5080806;28;20096;-64
2022/05/07 10:31:29;;;;;;;29.85;26.85;;;19.80;99.90;;;;;;5082944;28;20040;-57
2022/05/07 10:33:56;;;;;;;28.80;26.08;;;19.90;99.90;;;;;;5084444;28;20048;-57
2022/05/07 10:36:35;;;;;;;32.28;29.05;;;19.90;99.90;;;;;;5080067;28;20179;-56
2022/05/07 10:39:08;;;;;;;28.67;25.92;;;20.00;99.90;;;;;;5080334;28;20044;-58
2022/05/07 10:41:46;;;;;;;29.38;26.38;;;19.80;99.90;;;;;;5082072;28;20567;-57
2022/05/07 10:44:29;;;;;;;33.53;30.13;;;20.00;99.90;;;;;;5082417;28;20043;-57
2022/05/07 10:46:55;;;;;;;29.48;26.55;;;20.10;99.90;;;;;;5093818;28;20086;-56
2022/05/07 10:49:21;;;;;;;32.30;29.00;;;20.20;99.90;;;;;;5084631;28;20105;-57
2022/05/07 10:51:51;;;;;;;30.15;27.05;;;20.10;99.90;;;;;;5082457;28;20050;-57
2022/05/07 10:54:22;;;;;;;35.97;32.30;;;20.20;99.90;;;;;;5080285;28;20126;-57
2022/05/07 10:56:50;;;;;;;30.10;27.25;;;20.10;99.90;;;;;;5080641;28;20040;-64
2022/05/07 10:59:17;;;;;;;30.13;27.33;;;20.10;99.90;;;;;;5083240;28;20119;-57
2022/05/07 11:01:43;;;;;;;29.52;26.70;;;20.30;99.90;;;;;;5083686;28;20055;-57
2022/05/07 11:04:13;;;;;;;25.80;23.17;;;20.40;99.90;;;;;;5084325;28;20044;-57
2022/05/07 11:06:46;;;;;;;31.13;28.13;;;20.80;99.90;;;;;;5082190;28;20052;-57
2022/05/07 11:09:18;;;;;;;30.85;27.95;;;21.00;99.90;;;;;;5094663;28;20134;-57
2022/05/07 11:11:47;;;;;;;26.52;23.83;;;21.40;99.90;;;;;;5066936;28;20400;-57
2022/05/07 11:14:39;;;;;;;26.42;23.77;;;21.60;99.90;;;;;;5065200;28;20037;-63
2022/05/07 11:17:05;;;;;;;24.58;22.13;;;22.20;99.90;;;;;;5076370;28;20153;-63
2022/05/07 11:19:38;;;;;;;25.83;23.33;;;22.20;99.90;;;;;;5061757;28;20864;-64
2022/05/07 11:22:08;;;;;;;30.30;27.70;;;22.40;99.90;;;;;;5086627;28;20072;-64
2022/05/07 11:24:34;;;;;;;23.58;21.42;;;22.60;99.90;;;;;;5086534;28;20090;-65
2022/05/07 11:27:02;;;;;;;23.25;21.23;;;22.70;99.90;;;;;;5086220;28;20491;-64
2022/05/07 11:29:29;;;;;;;27.73;24.88;;;22.80;99.90;;;;;;5065927;28;20048;-64
2022/05/07 11:31:58;;;;;;;23.63;21.52;;;23.00;99.90;;;;;;5096980;28;20147;-58
2022/05/07 11:34:32;;;;;;;22.58;20.58;;;23.10;99.90;;;;;;5081044;28;20589;-55
2022/05/07 11:37:11;;;;;;;25.63;23.13;;;23.60;99.90;;;;;;5081762;28;20039;-55
2022/05/07 11:39:53;;;;;;;26.00;23.38;;;23.40;99.90;;;;;;5081732;28;20059;-56
2022/05/07 11:42:26;;;;;;;27.60;24.63;;;23.10;99.90;;;;;;5067789;28;20116;-57
2022/05/07 11:47:50;;;;;;;24.20;21.95;;;23.10;99.90;;;;;;5085056;28;20414;-61
2022/05/07 11:50:30;;;;;;;24.15;21.90;;;22.80;99.90;;;;;;5078380;28;20071;-62
2022/05/07 11:53:09;;;;;;;24.92;21.60;;;22.80;99.90;;;;;;5059409;28;20055;-62
2022/05/07 11:55:35;;;;;;;24.20;21.98;;;22.80;99.90;;;;;;5079600;28;20051;-62
2022/05/07 11:58:18;;;;;;;23.60;21.45;;;22.90;99.90;;;;;;5060861;28;20049;-62
2022/05/07 12:00:46;;;;;;;23.38;21.10;;;22.90;99.90;;;;;;5094348;28;20728;-62
2022/05/07 12:03:19;;;;;;;22.75;20.55;;;23.10;99.90;;;;;;5080375;28;20165;-61
2022/05/07 12:05:48;;;;;;;22.67;20.58;;;22.60;99.90;;;;;;5081511;28;20040;-62
2022/05/07 12:08:17;;;;;;;21.25;19.08;;;22.80;99.90;;;;;;5080150;28;20488;-56
2022/05/07 12:10:44;;;;;;;20.45;18.50;;;23.10;99.90;;;;;;5080535;28;20169;-62
2022/05/07 12:13:15;;;;;;;20.92;18.80;;;22.80;99.90;;;;;;5080341;28;20075;-61
2022/05/07 12:18:27;;;;;;;19.77;17.75;;;22.80;99.90;;;;;;5083845;28;20097;-56
2022/05/07 12:20:54;;;;;;;19.88;17.58;;;23.00;99.90;;;;;;5083305;28;20058;-56
2022/05/07 12:31:35;;;;;;;20.58;18.45;;;24.20;99.90;;;;;;5081166;28;20055;-62
2022/05/07 12:34:02;;;;;;;22.35;20.25;;;24.70;99.90;;;;;;5081992;28;20052;-63
2022/05/07 12:36:28;;;;;;;22.00;19.90;;;25.00;99.90;;;;;;5083013;28;20039;-63
2022/05/07 12:38:59;;;;;;;22.42;20.17;;;24.80;99.90;;;;;;5084813;28;20086;-64
2022/05/07 12:41:30;;;;;;;21.42;19.40;;;24.90;99.90;;;;;;5085451;28;20495;-64
2022/05/07 12:43:59;;;;;;;23.33;21.20;;;25.40;99.90;;;;;;5082501;28;20090;-64
2022/05/07 12:46:26;;;;;;;24.48;21.98;;;25.30;99.90;;;;;;5085793;28;20048;-63
2022/05/07 12:48:52;;;;;;;23.33;21.02;;;25.20;99.90;;;;;;5084046;28;20051;-64
2022/05/07 12:51:19;;;;;;;24.05;21.70;;;26.20;99.90;;;;;;5064772;28;20062;-63
2022/05/07 12:53:45;;;;;;;23.77;21.48;;;25.70;99.10;;;;;;5084334;28;20051;-63
2022/05/07 12:56:11;;;;;;;23.67;21.00;;;24.70;99.90;;;;;;5064302;28;20048;-63
2022/05/07 12:58:37;;;;;;;24.35;21.58;;;24.30;99.90;;;;;;5060101;28;20036;-63
2022/05/07 13:01:04;;;;;;;23.33;21.13;;;24.10;99.90;;;;;;5098441;27;20044;-64
2022/05/07 13:03:30;;;;;;;22.98;20.75;;;24.30;99.90;;;;;;5078082;28;20048;-63
2022/05/07 13:05:56;;;;;;;25.52;22.80;;;24.90;99.90;;;;;;5093050;27;20546;-63
2022/05/07 13:08:22;;;;;;;26.10;23.30;;;24.60;99.90;;;;;;5077973;28;20059;-63
2022/05/07 13:10:48;;;;;;;24.63;22.23;;;24.30;99.90;;;;;;5078041;28;20507;-63
2022/05/07 13:13:18;;;;;;;26.40;23.60;;;24.30;99.90;;;;;;5082337;28;20048;-63
2022/05/07 13:15:44;;;;;;;25.83;23.20;;;24.90;99.90;;;;;;5060944;28;20047;-63